sensor_id;sensor_type;location;lat;lon;timestamp;pressure;altitude;pressure_sealevel;temperature;humidity
49949;BME280;35840;45.982;8.890;2022-09-20T00:01:03;98437.75;;;15.82;38.82
49949;BME280;35840;45.982;8.890;2022-09-20T00:03:31;98435.72;;;15.86;39.03
49949;BME280;35840;45.982;8.890;2022-09-20T00:06:00;98443.44;;;15.97;38.03
49949;BME280;35840;45.982;8.890;2022-09-20T00:08:27;98436.78;;;15.83;37.93
49949;BME280;35840;45.982;8.890;2022-09-20T00:11:06;98443.91;;;15.58;38.54
49949;BME280;35840;45.982;8.890;2022-09-20T00:13:34;98438.56;;;15.27;39.32
49949;BME280;35840;45.982;8.890;2022-09-20T00:16:08;98438.34;;;15.19;39.63
49949;BME280;35840;45.982;8.890;2022-09-20T00:18:36;98446.38;;;14.71;40.33
49949;BME280;35840;45.982;8.890;2022-09-20T00:21:03;98437.19;;;14.78;40.87
49949;BME280;35840;45.982;8.890;2022-09-20T00:23:30;98449.06;;;14.69;40.53
49949;BME280;35840;45.982;8.890;2022-09-20T00:26:01;98458.16;;;14.86;41.51
49949;BME280;35840;45.982;8.890;2022-09-20T00:28:30;98452.97;;;14.86;43.14
49949;BME280;35840;45.982;8.890;2022-09-20T00:30:57;98459.56;;;15.02;42.35
49949;BME280;35840;45.982;8.890;2022-09-20T00:33:24;98458.38;;;15.06;41.74
49949;BME280;35840;45.982;8.890;2022-09-20T00:36:14;98449.19;;;15.13;41.76
49949;BME280;35840;45.982;8.890;2022-09-20T00:38:42;98454.72;;;15.08;42.08
49949;BME280;35840;45.982;8.890;2022-09-20T00:41:09;98439.91;;;14.88;43.13
49949;BME280;35840;45.982;8.890;2022-09-20T00:43:41;98445.56;;;14.82;43.72
49949;BME280;35840;45.982;8.890;2022-09-20T00:46:28;98449.66;;;14.95;42.93
49949;BME280;35840;45.982;8.890;2022-09-20T00:49:02;98434.34;;;15.04;42.75
49949;BME280;35840;45.982;8.890;2022-09-20T00:51:34;98446.97;;;15.08;41.60
49949;BME280;35840;45.982;8.890;2022-09-20T00:54:04;98441.31;;;14.80;41.51
49949;BME280;35840;45.982;8.890;2022-09-20T00:56:37;98450.94;;;14.78;41.02
49949;BME280;35840;45.982;8.890;2022-09-20T00:59:18;98437.16;;;14.55;41.42
49949;BME280;35840;45.982;8.890;2022-09-20T01:01:57;98441.19;;;14.71;40.79
49949;BME280;35840;45.982;8.890;2022-09-20T01:04:26;98443.91;;;14.69;40.36
49949;BME280;35840;45.982;8.890;2022-09-20T01:06:57;98443.78;;;14.82;40.59
49949;BME280;35840;45.982;8.890;2022-09-20T01:09:25;98434.59;;;14.89;41.08
49949;BME280;35840;45.982;8.890;2022-09-20T01:11:54;98452.25;;;14.84;40.74
49949;BME280;35840;45.982;8.890;2022-09-20T01:14:22;98427.53;;;14.57;40.52
49949;BME280;35840;45.982;8.890;2022-09-20T01:16:53;98449.44;;;14.65;40.18
49949;BME280;35840;45.982;8.890;2022-09-20T01:21:50;98458.94;;;14.64;41.14
49949;BME280;35840;45.982;8.890;2022-09-20T01:24:26;98456.72;;;14.71;41.74
49949;BME280;35840;45.982;8.890;2022-09-20T01:30:00;98457.38;;;14.50;41.64
49949;BME280;35840;45.982;8.890;2022-09-20T01:33:01;98453.59;;;14.43;41.44
49949;BME280;35840;45.982;8.890;2022-09-20T01:35:33;98457.09;;;14.31;42.09
49949;BME280;35840;45.982;8.890;2022-09-20T01:43:54;98447.38;;;14.45;44.04
49949;BME280;35840;45.982;8.890;2022-09-20T01:46:32;98450.19;;;14.54;43.16
49949;BME280;35840;45.982;8.890;2022-09-20T02:10:01;98458.59;;;13.86;44.75
49949;BME280;35840;45.982;8.890;2022-09-20T02:20:54;98458.50;;;14.23;42.86
49949;BME280;35840;45.982;8.890;2022-09-20T02:23:47;98452.41;;;14.36;42.55
49949;BME280;35840;45.982;8.890;2022-09-20T02:40:16;98442.94;;;13.76;43.83
49949;BME280;35840;45.982;8.890;2022-09-20T02:43:00;98435.94;;;13.90;43.67
49949;BME280;35840;45.982;8.890;2022-09-20T02:48:28;98426.31;;;13.68;43.60
49949;BME280;35840;45.982;8.890;2022-09-20T02:51:11;98427.47;;;13.64;43.87
49949;BME280;35840;45.982;8.890;2022-09-20T02:56:53;98433.81;;;13.84;42.92
49949;BME280;35840;45.982;8.890;2022-09-20T03:04:44;98432.09;;;13.71;43.95
49949;BME280;35840;45.982;8.890;2022-09-20T03:07:45;98434.75;;;13.58;44.16
49949;BME280;35840;45.982;8.890;2022-09-20T03:16:18;98443.03;;;13.51;44.57
49949;BME280;35840;45.982;8.890;2022-09-20T03:18:59;98440.44;;;13.51;44.21
49949;BME280;35840;45.982;8.890;2022-09-20T03:33:03;98456.88;;;13.98;43.78
49949;BME280;35840;45.982;8.890;2022-09-20T03:47:30;98466.50;;;13.72;44.38
49949;BME280;35840;45.982;8.890;2022-09-20T04:01:28;98459.50;;;13.24;45.28
49949;BME280;35840;45.982;8.890;2022-09-20T04:07:09;98460.06;;;13.16;45.78
49949;BME280;35840;45.982;8.890;2022-09-20T04:13:10;98463.53;;;13.28;45.45
49949;BME280;35840;45.982;8.890;2022-09-20T04:21:05;98466.22;;;13.26;45.66
49949;BME280;35840;45.982;8.890;2022-09-20T04:24:03;98464.97;;;12.82;45.93
49949;BME280;35840;45.982;8.890;2022-09-20T04:26:39;98470.75;;;12.86;45.84
49949;BME280;35840;45.982;8.890;2022-09-20T04:34:33;98476.50;;;12.77;46.15
49949;BME280;35840;45.982;8.890;2022-09-20T04:37:26;98483.00;;;12.95;45.86
49949;BME280;35840;45.982;8.890;2022-09-20T04:40:16;98477.81;;;13.08;45.37
49949;BME280;35840;45.982;8.890;2022-09-20T05:17:05;98525.94;;;13.22;46.97
49949;BME280;35840;45.982;8.890;2022-09-20T05:22:41;98526.88;;;12.82;47.27
49949;BME280;35840;45.982;8.890;2022-09-20T05:28:12;98534.72;;;12.81;47.49
49949;BME280;35840;45.982;8.890;2022-09-20T05:30:59;98533.97;;;12.53;48.82
49949;BME280;35840;45.982;8.890;2022-09-20T05:33:36;98535.50;;;12.55;49.04
49949;BME280;35840;45.982;8.890;2022-09-20T05:36:12;98542.28;;;12.03;51.16
49949;BME280;35840;45.982;8.890;2022-09-20T05:44:19;98537.78;;;12.07;51.70
49949;BME280;35840;45.982;8.890;2022-09-20T05:47:11;98537.72;;;11.94;50.43
49949;BME280;35840;45.982;8.890;2022-09-20T05:50:14;98542.28;;;12.03;49.45
49949;BME280;35840;45.982;8.890;2022-09-20T05:52:55;98534.41;;;12.19;48.78
49949;BME280;35840;45.982;8.890;2022-09-20T06:01:24;98537.19;;;12.56;48.54
49949;BME280;35840;45.982;8.890;2022-09-20T06:06:46;98543.19;;;12.96;47.63
49949;BME280;35840;45.982;8.890;2022-09-20T06:12:37;98551.53;;;12.86;47.81
49949;BME280;35840;45.982;8.890;2022-09-20T06:15:26;98550.09;;;12.82;47.92
49949;BME280;35840;45.982;8.890;2022-09-20T06:23:24;98549.78;;;13.25;50.44
49949;BME280;35840;45.982;8.890;2022-09-20T06:25:55;98558.38;;;13.39;50.21
49949;BME280;35840;45.982;8.890;2022-09-20T06:28:32;98560.50;;;13.45;48.43
49949;BME280;35840;45.982;8.890;2022-09-20T06:31:00;98564.53;;;13.49;48.20
49949;BME280;35840;45.982;8.890;2022-09-20T06:33:32;98560.50;;;13.45;47.80
49949;BME280;35840;45.982;8.890;2022-09-20T06:36:06;98559.91;;;13.29;47.99
49949;BME280;35840;45.982;8.890;2022-09-20T06:38:59;98567.44;;;13.45;47.59
49949;BME280;35840;45.982;8.890;2022-09-20T06:41:48;98566.34;;;13.36;47.48
49949;BME280;35840;45.982;8.890;2022-09-20T06:44:16;98568.25;;;13.32;47.74
49949;BME280;35840;45.982;8.890;2022-09-20T06:46:42;98573.50;;;13.56;47.66
49949;BME280;35840;45.982;8.890;2022-09-20T06:49:09;98570.19;;;13.67;46.90
49949;BME280;35840;45.982;8.890;2022-09-20T06:51:37;98566.59;;;13.57;46.64
49949;BME280;35840;45.982;8.890;2022-09-20T06:54:05;98567.50;;;13.69;47.34
49949;BME280;35840;45.982;8.890;2022-09-20T06:56:34;98561.47;;;13.81;46.88
49949;BME280;35840;45.982;8.890;2022-09-20T06:59:03;98570.59;;;13.74;50.32
49949;BME280;35840;45.982;8.890;2022-09-20T07:01:30;98563.56;;;13.76;50.24
49949;BME280;35840;45.982;8.890;2022-09-20T07:03:57;98563.41;;;13.90;49.83
49949;BME280;35840;45.982;8.890;2022-09-20T07:06:24;98573.78;;;14.02;48.25
49949;BME280;35840;45.982;8.890;2022-09-20T07:08:51;98576.66;;;14.10;49.25
49949;BME280;35840;45.982;8.890;2022-09-20T07:11:18;98576.44;;;14.13;48.41
49949;BME280;35840;45.982;8.890;2022-09-20T07:13:49;98580.16;;;14.22;50.68
49949;BME280;35840;45.982;8.890;2022-09-20T07:16:16;98580.28;;;14.32;47.40
49949;BME280;35840;45.982;8.890;2022-09-20T07:18:43;98585.72;;;14.40;47.97
49949;BME280;35840;45.982;8.890;2022-09-20T07:21:15;98578.97;;;14.50;47.05
49949;BME280;35840;45.982;8.890;2022-09-20T07:23:42;98587.72;;;14.60;47.18
49949;BME280;35840;45.982;8.890;2022-09-20T07:26:21;98589.06;;;14.66;46.54
49949;BME280;35840;45.982;8.890;2022-09-20T07:28:49;98586.69;;;14.63;45.14
49949;BME280;35840;45.982;8.890;2022-09-20T07:31:17;98590.34;;;14.72;46.96
49949;BME280;35840;45.982;8.890;2022-09-20T07:33:44;98594.25;;;14.77;46.83
49949;BME280;35840;45.982;8.890;2022-09-20T07:36:11;98597.31;;;14.83;45.07
49949;BME280;35840;45.982;8.890;2022-09-20T07:38:38;98597.69;;;14.89;46.14
49949;BME280;35840;45.982;8.890;2022-09-20T07:41:05;98600.88;;;14.93;46.10
49949;BME280;35840;45.982;8.890;2022-09-20T07:43:33;98599.94;;;14.94;45.18
49949;BME280;35840;45.982;8.890;2022-09-20T07:46:00;98607.84;;;15.04;45.42
49949;BME280;35840;45.982;8.890;2022-09-20T07:48:33;98607.16;;;15.13;44.98
49949;BME280;35840;45.982;8.890;2022-09-20T07:51:03;98603.41;;;15.17;46.78
49949;BME280;35840;45.982;8.890;2022-09-20T07:53:34;98615.19;;;15.21;47.09
49949;BME280;35840;45.982;8.890;2022-09-20T07:56:02;98606.81;;;15.29;49.36
49949;BME280;35840;45.982;8.890;2022-09-20T07:58:32;98609.78;;;15.36;45.02
49949;BME280;35840;45.982;8.890;2022-09-20T08:01:05;98621.06;;;15.35;44.42
49949;BME280;35840;45.982;8.890;2022-09-20T08:03:33;98609.28;;;15.42;45.44
49949;BME280;35840;45.982;8.890;2022-09-20T08:06:02;98611.88;;;15.42;47.25
49949;BME280;35840;45.982;8.890;2022-09-20T08:08:33;98617.31;;;15.50;45.29
49949;BME280;35840;45.982;8.890;2022-09-20T08:13:39;98617.66;;;15.45;46.59
49949;BME280;35840;45.982;8.890;2022-09-20T08:16:30;98623.66;;;15.57;46.37
49949;BME280;35840;45.982;8.890;2022-09-20T08:18:59;98619.91;;;15.61;46.30
49949;BME280;35840;45.982;8.890;2022-09-20T08:21:31;98619.41;;;15.67;43.35
49949;BME280;35840;45.982;8.890;2022-09-20T08:23:58;98617.19;;;15.63;42.58
49949;BME280;35840;45.982;8.890;2022-09-20T08:26:27;98619.28;;;15.69;42.49
49949;BME280;35840;45.982;8.890;2022-09-20T08:28:56;98620.97;;;15.81;44.88
49949;BME280;35840;45.982;8.890;2022-09-20T08:31:25;98618.72;;;15.88;41.53
49949;BME280;35840;45.982;8.890;2022-09-20T08:33:53;98620.47;;;15.88;41.09
49949;BME280;35840;45.982;8.890;2022-09-20T08:36:22;98620.47;;;15.88;38.99
49949;BME280;35840;45.982;8.890;2022-09-20T08:38:50;98612.38;;;15.92;37.87
49949;BME280;35840;45.982;8.890;2022-09-20T08:44:54;98619.47;;;16.23;43.64
49949;BME280;35840;45.982;8.890;2022-09-20T08:47:36;98607.78;;;16.28;43.25
49949;BME280;35840;45.982;8.890;2022-09-20T08:50:06;98607.06;;;16.38;44.94
49949;BME280;35840;45.982;8.890;2022-09-20T08:52:37;98606.56;;;16.44;43.94
49949;BME280;35840;45.982;8.890;2022-09-20T08:55:16;98605.22;;;16.49;43.82
49949;BME280;35840;45.982;8.890;2022-09-20T08:57:46;98604.16;;;16.52;43.44
49949;BME280;35840;45.982;8.890;2022-09-20T09:00:18;98605.81;;;16.53;43.20
49949;BME280;35840;45.982;8.890;2022-09-20T09:02:45;98597.41;;;16.61;42.32
49949;BME280;35840;45.982;8.890;2022-09-20T09:05:29;98590.88;;;16.66;39.95
49949;BME280;35840;45.982;8.890;2022-09-20T09:08:10;98589.22;;;16.65;42.25
49949;BME280;35840;45.982;8.890;2022-09-20T09:10:48;98582.28;;;16.66;39.81
49949;BME280;35840;45.982;8.890;2022-09-20T09:13:24;98585.38;;;16.81;42.31
49949;BME280;35840;45.982;8.890;2022-09-20T09:16:00;98579.69;;;16.87;40.82
49949;BME280;35840;45.982;8.890;2022-09-20T09:18:36;98585.81;;;16.86;40.49
49949;BME280;35840;45.982;8.890;2022-09-20T09:21:06;98577.31;;;16.84;38.50
49949;BME280;35840;45.982;8.890;2022-09-20T09:23:39;98583.00;;;16.89;39.52
49949;BME280;35840;45.982;8.890;2022-09-20T09:26:27;98572.59;;;16.89;39.39
49949;BME280;35840;45.982;8.890;2022-09-20T09:29:20;98578.00;;;16.97;40.92
49949;BME280;35840;45.982;8.890;2022-09-20T09:31:51;98573.66;;;17.08;39.75
49949;BME280;35840;45.982;8.890;2022-09-20T09:34:25;98570.94;;;17.09;39.61
49949;BME280;35840;45.982;8.890;2022-09-20T09:36:53;98570.31;;;17.17;39.53
49949;BME280;35840;45.982;8.890;2022-09-20T09:39:27;98564.72;;;17.21;39.53
49949;BME280;35840;45.982;8.890;2022-09-20T09:41:55;98561.59;;;17.28;44.16
49949;BME280;35840;45.982;8.890;2022-09-20T09:44:25;98562.34;;;17.40;43.40
49949;BME280;35840;45.982;8.890;2022-09-20T09:46:55;98560.31;;;17.53;44.05
49949;BME280;35840;45.982;8.890;2022-09-20T09:54:33;98555.56;;;17.68;44.23
49949;BME280;35840;45.982;8.890;2022-09-20T10:06:21;98538.50;;;17.85;42.82
49949;BME280;35840;45.982;8.890;2022-09-20T10:09:17;98524.97;;;17.91;41.60
49949;BME280;35840;45.982;8.890;2022-09-20T10:17:33;98537.28;;;17.99;41.95
49949;BME280;35840;45.982;8.890;2022-09-20T10:20:22;98528.25;;;17.93;40.63
49949;BME280;35840;45.982;8.890;2022-09-20T10:23:18;98524.38;;;17.87;40.00
49949;BME280;35840;45.982;8.890;2022-09-20T10:32:09;98513.59;;;18.21;41.53
49949;BME280;35840;45.982;8.890;2022-09-20T10:35:00;98512.50;;;18.34;43.04
49949;BME280;35840;45.982;8.890;2022-09-20T10:43:45;98499.25;;;18.17;39.38
49949;BME280;35840;45.982;8.890;2022-09-20T10:55:18;98489.84;;;18.64;39.03
49949;BME280;35840;45.982;8.890;2022-09-20T10:58:11;98499.16;;;18.76;39.24
49949;BME280;35840;45.982;8.890;2022-09-20T11:08:57;98495.31;;;18.90;39.87
49949;BME280;35840;45.982;8.890;2022-09-20T11:11:28;98490.75;;;18.92;38.50
49949;BME280;35840;45.982;8.890;2022-09-20T11:14:09;98490.63;;;18.93;39.21
49949;BME280;35840;45.982;8.890;2022-09-20T11:17:02;98482.28;;;18.90;37.37
49949;BME280;35840;45.982;8.890;2022-09-20T11:22:20;98487.28;;;19.11;39.44
49949;BME280;35840;45.982;8.890;2022-09-20T11:25:01;98475.50;;;19.07;40.95
49949;BME280;35840;45.982;8.890;2022-09-20T11:27:37;98486.13;;;19.14;38.93
49949;BME280;35840;45.982;8.890;2022-09-20T11:30:19;98484.50;;;19.13;39.36
49949;BME280;35840;45.982;8.890;2022-09-20T11:35:51;98474.13;;;19.31;38.96
49949;BME280;35840;45.982;8.890;2022-09-20T11:38:45;98471.75;;;19.37;39.01
49949;BME280;35840;45.982;8.890;2022-09-20T11:41:25;98462.22;;;19.46;39.92
49949;BME280;35840;45.982;8.890;2022-09-20T11:43:54;98452.03;;;19.53;38.28
49949;BME280;35840;45.982;8.890;2022-09-20T11:46:37;98461.88;;;19.59;40.55
49949;BME280;35840;45.982;8.890;2022-09-20T11:49:16;98456.28;;;19.54;37.41
49949;BME280;35840;45.982;8.890;2022-09-20T11:51:55;98446.72;;;19.44;37.44
49949;BME280;35840;45.982;8.890;2022-09-20T11:54:45;98444.03;;;19.36;38.88
49949;BME280;35840;45.982;8.890;2022-09-20T11:57:15;98440.34;;;19.57;41.49
49949;BME280;35840;45.982;8.890;2022-09-20T11:59:49;98440.09;;;19.50;37.02
49949;BME280;35840;45.982;8.890;2022-09-20T12:02:40;98432.59;;;19.65;37.28
49949;BME280;35840;45.982;8.890;2022-09-20T12:05:39;98433.06;;;19.60;38.92
49949;BME280;35840;45.982;8.890;2022-09-20T12:08:20;98435.22;;;19.65;39.77
49949;BME280;35840;45.982;8.890;2022-09-20T12:11:06;98418.88;;;19.63;38.05
49949;BME280;35840;45.982;8.890;2022-09-20T12:13:39;98418.44;;;19.50;37.76
49949;BME280;35840;45.982;8.890;2022-09-20T12:16:12;98415.59;;;19.61;38.96
49949;BME280;35840;45.982;8.890;2022-09-20T12:21:21;98413.22;;;19.50;37.57
49949;BME280;35840;45.982;8.890;2022-09-20T12:28:47;98399.44;;;19.75;40.74
49949;BME280;35840;45.982;8.890;2022-09-20T12:39:28;98380.09;;;20.04;39.72
49949;BME280;35840;45.982;8.890;2022-09-20T12:42:02;98382.69;;;20.04;40.34
49949;BME280;35840;45.982;8.890;2022-09-20T12:52:37;98379.59;;;20.27;37.60
49949;BME280;35840;45.982;8.890;2022-09-20T13:11:21;98356.19;;;20.43;40.32
49949;BME280;35840;45.982;8.890;2022-09-20T13:14:01;98352.44;;;20.46;39.24
49949;BME280;35840;45.982;8.890;2022-09-20T13:16:47;98342.84;;;20.55;38.27
49949;BME280;35840;45.982;8.890;2022-09-20T13:19:26;98345.09;;;20.50;38.19
49949;BME280;35840;45.982;8.890;2022-09-20T13:24:39;98325.38;;;20.55;43.22
49949;BME280;35840;45.982;8.890;2022-09-20T13:27:32;98332.75;;;20.60;39.86
49949;BME280;35840;45.982;8.890;2022-09-20T13:32:42;98329.22;;;20.69;40.70
49949;BME280;35840;45.982;8.890;2022-09-20T13:37:37;98317.19;;;20.93;38.10
49949;BME280;35840;45.982;8.890;2022-09-20T13:40:18;98304.78;;;20.87;35.95
49949;BME280;35840;45.982;8.890;2022-09-20T13:42:48;98305.75;;;20.86;38.00
49949;BME280;35840;45.982;8.890;2022-09-20T13:45:15;98313.28;;;20.89;38.66
49949;BME280;35840;45.982;8.890;2022-09-20T13:47:47;98311.16;;;20.92;39.11
49949;BME280;35840;45.982;8.890;2022-09-20T13:50:29;98303.47;;;20.99;39.70
49949;BME280;35840;45.982;8.890;2022-09-20T13:53:00;98303.16;;;21.10;38.34
49949;BME280;35840;45.982;8.890;2022-09-20T13:55:37;98299.91;;;21.08;36.14
49949;BME280;35840;45.982;8.890;2022-09-20T13:58:19;98294.34;;;21.11;38.43
49949;BME280;35840;45.982;8.890;2022-09-20T14:00:50;98293.88;;;21.24;38.00
49949;BME280;35840;45.982;8.890;2022-09-20T14:03:20;98290.13;;;21.35;37.92
49949;BME280;35840;45.982;8.890;2022-09-20T14:05:49;98290.94;;;21.36;37.97
49949;BME280;35840;45.982;8.890;2022-09-20T14:08:29;98285.38;;;21.30;36.38
49949;BME280;35840;45.982;8.890;2022-09-20T14:11:06;98286.84;;;21.33;36.59
49949;BME280;35840;45.982;8.890;2022-09-20T14:13:39;98286.22;;;21.31;38.50
49949;BME280;35840;45.982;8.890;2022-09-20T14:16:07;98283.56;;;21.47;35.57
49949;BME280;35840;45.982;8.890;2022-09-20T14:18:35;98282.13;;;21.53;36.07
49949;BME280;35840;45.982;8.890;2022-09-20T14:21:05;98271.34;;;21.56;37.23
49949;BME280;35840;45.982;8.890;2022-09-20T14:23:51;98271.50;;;21.63;35.96
49949;BME280;35840;45.982;8.890;2022-09-20T14:26:30;98263.97;;;21.60;37.68
49949;BME280;35840;45.982;8.890;2022-09-20T14:32:04;98268.41;;;21.67;36.77
49949;BME280;35840;45.982;8.890;2022-09-20T14:34:39;98266.91;;;21.73;37.60
49949;BME280;35840;45.982;8.890;2022-09-20T14:37:21;98266.41;;;21.78;36.84
49949;BME280;35840;45.982;8.890;2022-09-20T14:39:52;98262.66;;;21.80;37.28
49949;BME280;35840;45.982;8.890;2022-09-20T14:42:39;98260.50;;;21.84;36.64
49949;BME280;35840;45.982;8.890;2022-09-20T14:45:07;98253.13;;;21.88;37.62
49949;BME280;35840;45.982;8.890;2022-09-20T14:47:56;98255.41;;;21.91;37.00
49949;BME280;35840;45.982;8.890;2022-09-20T14:53:00;98245.72;;;21.99;35.38
49949;BME280;35840;45.982;8.890;2022-09-20T14:55:27;98243.28;;;21.98;35.08
49949;BME280;35840;45.982;8.890;2022-09-20T14:58:12;98248.53;;;21.98;34.42
49949;BME280;35840;45.982;8.890;2022-09-20T15:03:30;98247.19;;;22.02;33.78
49949;BME280;35840;45.982;8.890;2022-09-20T15:05:58;98240.50;;;21.99;34.13
49949;BME280;35840;45.982;8.890;2022-09-20T15:08:24;98246.41;;;22.01;35.32
49949;BME280;35840;45.982;8.890;2022-09-20T15:10:51;98231.31;;;22.04;34.78
49949;BME280;35840;45.982;8.890;2022-09-20T15:13:18;98241.28;;;22.08;34.82
49949;BME280;35840;45.982;8.890;2022-09-20T15:15:48;98234.44;;;22.07;33.46
49949;BME280;35840;45.982;8.890;2022-09-20T15:18:22;98238.66;;;22.08;33.94
49949;BME280;35840;45.982;8.890;2022-09-20T15:20:51;98242.91;;;22.09;35.17
49949;BME280;35840;45.982;8.890;2022-09-20T15:23:18;98239.97;;;22.04;34.05
49949;BME280;35840;45.982;8.890;2022-09-20T15:25:48;98248.00;;;22.02;35.82
49949;BME280;35840;45.982;8.890;2022-09-20T15:28:16;98243.31;;;21.90;31.73
49949;BME280;35840;45.982;8.890;2022-09-20T15:30:43;98240.06;;;21.88;32.05
49949;BME280;35840;45.982;8.890;2022-09-20T15:33:11;98234.16;;;21.86;32.39
49949;BME280;35840;45.982;8.890;2022-09-20T15:35:42;98239.56;;;21.84;33.12
49949;BME280;35840;45.982;8.890;2022-09-20T15:38:09;98231.53;;;21.86;34.03
49949;BME280;35840;45.982;8.890;2022-09-20T15:40:40;98221.41;;;21.82;32.69
49949;BME280;35840;45.982;8.890;2022-09-20T15:43:08;98236.75;;;21.86;32.20
49949;BME280;35840;45.982;8.890;2022-09-20T15:45:46;98237.28;;;21.81;33.13
49949;BME280;35840;45.982;8.890;2022-09-20T15:48:20;98228.78;;;21.79;33.97
49949;BME280;35840;45.982;8.890;2022-09-20T15:53:26;98233.34;;;21.77;35.67
49949;BME280;35840;45.982;8.890;2022-09-20T15:55:52;98237.47;;;21.71;35.42
49949;BME280;35840;45.982;8.890;2022-09-20T15:58:19;98235.50;;;21.73;35.87
49949;BME280;35840;45.982;8.890;2022-09-20T16:00:46;98239.56;;;21.76;36.45
49949;BME280;35840;45.982;8.890;2022-09-20T16:03:14;98239.47;;;21.61;37.07
49949;BME280;35840;45.982;8.890;2022-09-20T16:05:42;98234.38;;;21.43;37.68
49949;BME280;35840;45.982;8.890;2022-09-20T16:08:08;98240.91;;;21.39;37.81
49949;BME280;35840;45.982;8.890;2022-09-20T16:10:35;98243.88;;;21.27;38.47
49949;BME280;35840;45.982;8.890;2022-09-20T16:13:03;98236.34;;;21.24;38.84
49949;BME280;35840;45.982;8.890;2022-09-20T16:15:30;98245.84;;;21.17;39.53
49949;BME280;35840;45.982;8.890;2022-09-20T16:17:57;98243.53;;;21.06;39.90
49949;BME280;35840;45.982;8.890;2022-09-20T16:20:42;98237.69;;;21.04;40.51
49949;BME280;35840;45.982;8.890;2022-09-20T16:23:09;98243.38;;;20.99;40.66
49949;BME280;35840;45.982;8.890;2022-09-20T16:25:35;98244.38;;;20.98;40.15
49949;BME280;35840;45.982;8.890;2022-09-20T16:28:02;98241.75;;;20.90;40.76
49949;BME280;35840;45.982;8.890;2022-09-20T16:30:28;98235.81;;;20.79;41.79
49949;BME280;35840;45.982;8.890;2022-09-20T16:32:55;98255.91;;;20.71;42.02
49949;BME280;35840;45.982;8.890;2022-09-20T16:35:22;98254.38;;;20.52;43.45
49949;BME280;35840;45.982;8.890;2022-09-20T16:37:48;98259.66;;;20.25;42.33
49949;BME280;35840;45.982;8.890;2022-09-20T16:40:15;98250.94;;;20.08;43.16
49949;BME280;35840;45.982;8.890;2022-09-20T16:42:42;98247.97;;;19.77;43.33
49949;BME280;35840;45.982;8.890;2022-09-20T16:45:17;98258.81;;;19.64;43.76
49949;BME280;35840;45.982;8.890;2022-09-20T16:47:44;98260.34;;;19.49;44.47
49949;BME280;35840;45.982;8.890;2022-09-20T16:50:12;98252.03;;;19.45;45.37
49949;BME280;35840;45.982;8.890;2022-09-20T16:52:38;98255.06;;;19.40;44.97
49949;BME280;35840;45.982;8.890;2022-09-20T16:55:06;98264.19;;;19.18;45.80
49949;BME280;35840;45.982;8.890;2022-09-20T16:57:32;98264.84;;;19.02;45.96
49949;BME280;35840;45.982;8.890;2022-09-20T16:59:59;98268.66;;;18.90;46.43
49949;BME280;35840;45.982;8.890;2022-09-20T17:02:26;98272.88;;;18.91;46.28
49949;BME280;35840;45.982;8.890;2022-09-20T17:04:52;98268.09;;;18.86;46.75
49949;BME280;35840;45.982;8.890;2022-09-20T17:07:19;98265.22;;;18.89;47.50
49949;BME280;35840;45.982;8.890;2022-09-20T17:09:48;98278.09;;;18.91;47.08
49949;BME280;35840;45.982;8.890;2022-09-20T17:12:15;98284.81;;;18.84;47.40
49949;BME280;35840;45.982;8.890;2022-09-20T17:14:47;98281.97;;;18.87;47.97
49949;BME280;35840;45.982;8.890;2022-09-20T17:17:13;98289.88;;;18.85;48.07
49949;BME280;35840;45.982;8.890;2022-09-20T17:19:40;98279.47;;;18.85;48.28
49949;BME280;35840;45.982;8.890;2022-09-20T17:22:07;98291.41;;;18.88;48.69
49949;BME280;35840;45.982;8.890;2022-09-20T17:24:34;98290.69;;;18.68;48.67
49949;BME280;35840;45.982;8.890;2022-09-20T17:27:01;98292.69;;;18.74;47.48
49949;BME280;35840;45.982;8.890;2022-09-20T17:29:29;98305.13;;;18.62;48.14
49949;BME280;35840;45.982;8.890;2022-09-20T17:31:56;98300.25;;;18.77;47.65
49949;BME280;35840;45.982;8.890;2022-09-20T17:34:25;98297.09;;;18.73;47.00
49949;BME280;35840;45.982;8.890;2022-09-20T17:36:53;98309.25;;;18.83;46.92
49949;BME280;35840;45.982;8.890;2022-09-20T17:39:21;98303.75;;;18.86;46.80
49949;BME280;35840;45.982;8.890;2022-09-20T17:41:48;98314.47;;;18.83;47.29
49949;BME280;35840;45.982;8.890;2022-09-20T17:44:16;98313.28;;;18.77;47.37
49949;BME280;35840;45.982;8.890;2022-09-20T17:46:44;98318.44;;;18.59;47.11
49949;BME280;35840;45.982;8.890;2022-09-20T17:49:13;98326.81;;;18.53;47.41
49949;BME280;35840;45.982;8.890;2022-09-20T17:51:42;98324.34;;;18.51;49.25
49949;BME280;35840;45.982;8.890;2022-09-20T17:54:10;98331.88;;;18.54;48.67
49949;BME280;35840;45.982;8.890;2022-09-20T17:56:41;98333.69;;;18.44;48.79
49949;BME280;35840;45.982;8.890;2022-09-20T17:59:10;98338.91;;;18.44;47.41
49949;BME280;35840;45.982;8.890;2022-09-20T18:01:38;98339.75;;;18.45;48.81
49949;BME280;35840;45.982;8.890;2022-09-20T18:04:06;98332.66;;;18.27;47.90
49949;BME280;35840;45.982;8.890;2022-09-20T18:06:46;98345.28;;;18.32;47.65
49949;BME280;35840;45.982;8.890;2022-09-20T18:09:17;98349.78;;;18.30;47.40
49949;BME280;35840;45.982;8.890;2022-09-20T18:11:49;98348.56;;;18.24;47.56
49949;BME280;35840;45.982;8.890;2022-09-20T18:14:18;98351.72;;;18.28;47.50
49949;BME280;35840;45.982;8.890;2022-09-20T18:16:46;98353.91;;;18.22;47.53
49949;BME280;35840;45.982;8.890;2022-09-20T18:19:12;98358.59;;;18.19;47.50
49949;BME280;35840;45.982;8.890;2022-09-20T18:21:42;98360.50;;;18.17;47.84
49949;BME280;35840;45.982;8.890;2022-09-20T18:24:10;98367.50;;;18.16;47.88
49949;BME280;35840;45.982;8.890;2022-09-20T18:26:37;98367.50;;;18.16;47.61
49949;BME280;35840;45.982;8.890;2022-09-20T18:29:13;98373.25;;;18.10;47.40
49949;BME280;35840;45.982;8.890;2022-09-20T18:31:50;98371.78;;;18.08;47.97
49949;BME280;35840;45.982;8.890;2022-09-20T18:34:26;98373.81;;;18.04;47.77
49949;BME280;35840;45.982;8.890;2022-09-20T18:36:57;98382.06;;;17.99;47.99
49949;BME280;35840;45.982;8.890;2022-09-20T18:39:25;98384.63;;;17.89;48.19